Time;durP1;ratioP1;P1;durP2;ratioP2;P2;SDS_P1;SDS_P2;PMS_P1;PMS_P2;Temp;Humidity;BMP_temperature;BMP_pressure;BME280_temperature;BME280_humidity;BME280_pressure;Samples;Min_cycle;Max_cycle;Signal;HPM_P1;HPM_P2
2022/08/24 00:01:15;;;;;;;9.37;5.30;;;19.40;1.00;;;;;;5046709;28;20433;-84
2022/08/24 00:03:46;;;;;;;11.70;5.77;;;19.30;1.00;;;;;;5021824;28;20464;-86
2022/08/24 00:06:15;;;;;;;10.97;6.17;;;19.30;1.00;;;;;;5028751;28;20511;-86
2022/08/24 00:08:43;;;;;;;10.30;5.63;;;19.30;1.00;;;;;;5028325;28;20593;-87
2022/08/24 00:11:10;;;;;;;8.87;5.60;;;19.20;1.00;;;;;;5026196;28;21485;-87
2022/08/24 00:13:39;;;;;;;10.73;5.47;;;19.30;1.00;;;;;;5025791;28;20561;-87
2022/08/24 00:16:06;;;;;;;10.80;6.17;;;19.30;1.00;;;;;;5023043;28;20503;-87
2022/08/24 00:18:33;;;;;;;10.07;5.10;;;19.30;1.00;;;;;;5031704;28;21191;-86
2022/08/24 00:21:02;;;;;;;10.17;5.63;;;19.20;1.00;;;;;;5025594;28;20540;-87
2022/08/24 00:23:32;;;;;;;9.50;5.80;;;19.20;1.00;;;;;;5030844;28;20441;-86
2022/08/24 00:25:59;;;;;;;9.50;5.20;;;19.20;1.00;;;;;;5029694;28;20539;-86
2022/08/24 00:28:26;;;;;;;10.00;5.53;;;19.10;1.00;;;;;;5028680;28;20465;-87
2022/08/24 00:30:54;;;;;;;11.30;6.37;;;19.10;1.00;;;;;;5031090;28;20440;-85
2022/08/24 00:33:21;;;;;;;10.27;5.57;;;19.10;1.00;;;;;;5024002;28;20465;-86
2022/08/24 00:35:48;;;;;;;10.90;6.50;;;19.10;1.00;;;;;;5022984;28;20564;-86
2022/08/24 00:38:17;;;;;;;11.93;5.93;;;19.10;1.00;;;;;;5020089;28;20483;-86
2022/08/24 00:40:47;;;;;;;10.87;5.80;;;19.10;1.00;;;;;;5037809;28;20532;-85
2022/08/24 00:43:17;;;;;;;10.80;6.33;;;19.10;1.00;;;;;;5019413;28;20457;-87
2022/08/24 00:45:49;;;;;;;9.30;4.70;;;19.10;1.00;;;;;;5031167;28;20483;-85
2022/08/24 00:48:20;;;;;;;11.80;5.60;;;19.10;1.00;;;;;;5017052;28;20832;-80
2022/08/24 00:50:53;;;;;;;9.30;5.40;;;19.10;1.00;;;;;;5028114;28;20460;-79
2022/08/24 00:53:24;;;;;;;10.13;5.70;;;19.10;1.00;;;;;;5026924;28;20473;-79
2022/08/24 00:56:03;;;;;;;12.47;5.90;;;19.10;1.00;;;;;;5023481;28;20480;-82
2022/08/24 00:58:34;;;;;;;9.53;5.50;;;19.10;1.00;;;;;;5026811;28;20464;-80
2022/08/24 01:01:05;;;;;;;11.13;6.73;;;19.10;1.00;;;;;;5014725;28;20520;-79
2022/08/24 01:03:34;;;;;;;11.70;6.20;;;19.00;1.00;;;;;;5014178;28;20975;-80
2022/08/24 01:06:01;;;;;;;14.50;7.20;;;19.00;1.00;;;;;;5027548;28;20564;-80
2022/08/24 01:08:35;;;;;;;10.20;5.83;;;18.90;1.00;;;;;;5024534;28;20450;-80
2022/08/24 01:11:06;;;;;;;10.17;6.10;;;18.90;1.00;;;;;;5009626;28;20876;-79
2022/08/24 01:13:35;;;;;;;11.43;6.23;;;18.90;1.00;;;;;;5028789;28;20481;-81
2022/08/24 01:16:09;;;;;;;10.13;6.27;;;18.90;1.00;;;;;;5016630;28;21185;-80
2022/08/24 01:18:50;;;;;;;13.90;6.77;;;18.80;1.00;;;;;;5028793;28;21086;-79
2022/08/24 01:21:21;;;;;;;11.20;7.00;;;18.80;1.00;;;;;;5022964;28;20465;-79
2022/08/24 01:24:00;;;;;;;11.03;6.53;;;18.70;1.00;;;;;;5022853;28;20535;-83
2022/08/24 01:26:42;;;;;;;10.30;6.30;;;18.70;1.00;;;;;;5033698;28;20476;-80
2022/08/24 01:29:18;;;;;;;11.37;6.17;;;18.70;1.00;;;;;;5023282;28;20463;-79
2022/08/24 01:31:46;;;;;;;11.10;6.70;;;18.70;1.00;;;;;;5023319;28;20488;-79
2022/08/24 01:34:13;;;;;;;11.50;6.60;;;18.70;1.00;;;;;;5021989;28;20827;-83
2022/08/24 01:36:44;;;;;;;12.43;6.43;;;18.70;1.00;;;;;;5035459;28;20472;-80
2022/08/24 01:39:20;;;;;;;11.97;6.67;;;18.70;1.00;;;;;;5027675;28;20465;-80
2022/08/24 01:41:47;;;;;;;10.73;6.73;;;18.70;1.00;;;;;;5026402;28;20471;-80
2022/08/24 01:44:14;;;;;;;15.10;9.07;;;18.60;1.00;;;;;;5022224;28;20460;-80
2022/08/24 01:46:43;;;;;;;15.10;8.80;;;18.60;1.00;;;;;;5036929;28;20507;-80
2022/08/24 01:49:10;;;;;;;18.83;11.23;;;18.60;1.00;;;;;;5025399;28;20458;-80
2022/08/24 01:51:37;;;;;;;16.57;10.53;;;18.60;1.00;;;;;;5030518;28;20477;-79
2022/08/24 01:54:05;;;;;;;20.53;12.50;;;18.70;1.00;;;;;;5032204;28;21274;-80
2022/08/24 01:56:35;;;;;;;20.13;12.00;;;18.70;1.00;;;;;;5027857;28;20476;-78
2022/08/24 01:59:04;;;;;;;23.20;13.23;;;18.80;1.00;;;;;;5020258;28;20492;-82
2022/08/24 02:01:39;;;;;;;21.67;14.47;;;18.90;1.00;;;;;;5012408;28;21399;-80
2022/08/24 02:04:09;;;;;;;21.13;14.00;;;19.00;1.00;;;;;;5032624;28;20456;-80
2022/08/24 02:06:37;;;;;;;25.37;15.00;;;19.00;1.00;;;;;;5028007;28;20477;-80
2022/08/24 02:09:05;;;;;;;23.83;14.90;;;19.10;1.00;;;;;;5024519;28;20464;-80
2022/08/24 02:11:34;;;;;;;28.43;16.37;;;19.20;1.00;;;;;;5026025;28;20986;-80
2022/08/24 02:14:01;;;;;;;27.57;17.30;;;19.30;1.00;;;;;;5022656;28;20461;-80
2022/08/24 02:16:27;;;;;;;27.20;16.53;;;19.30;1.00;;;;;;5024621;28;20469;-80
2022/08/24 02:18:55;;;;;;;31.90;18.83;;;19.30;1.00;;;;;;5016248;28;20476;-81
2022/08/24 02:21:22;;;;;;;33.07;19.17;;;19.30;1.00;;;;;;5025256;28;20457;-80
2022/08/24 02:23:50;;;;;;;33.27;20.00;;;19.40;1.00;;;;;;5025071;28;20466;-80
2022/08/24 02:26:17;;;;;;;30.40;18.70;;;19.50;1.00;;;;;;5021893;28;20473;-80
2022/08/24 02:28:45;;;;;;;31.47;19.90;;;19.50;1.00;;;;;;5022536;28;20523;-80
2022/08/24 02:31:14;;;;;;;31.17;19.50;;;19.50;1.00;;;;;;5022693;28;20472;-80
2022/08/24 02:33:41;;;;;;;27.17;16.97;;;19.50;1.00;;;;;;5025337;28;20465;-80
2022/08/24 02:36:10;;;;;;;32.40;20.57;;;19.50;1.00;;;;;;5025700;28;20484;-81
2022/08/24 02:38:37;;;;;;;35.37;20.87;;;19.40;1.00;;;;;;5025058;28;20450;-80
2022/08/24 02:41:04;;;;;;;30.90;19.03;;;19.30;1.00;;;;;;5021813;28;20979;-80
2022/08/24 02:43:33;;;;;;;34.53;20.90;;;19.20;1.00;;;;;;5038043;28;20531;-80
2022/08/24 02:46:01;;;;;;;31.60;20.67;;;19.30;1.00;;;;;;5025252;28;20488;-80
2022/08/24 02:48:29;;;;;;;36.97;21.83;;;19.20;1.00;;;;;;5014403;28;21029;-83
2022/08/24 02:50:56;;;;;;;33.80;21.37;;;19.10;1.00;;;;;;5030771;28;20909;-80
2022/08/24 02:53:23;;;;;;;36.13;21.30;;;19.00;1.00;;;;;;5014331;28;20477;-80
2022/08/24 02:55:53;;;;;;;31.50;20.80;;;19.00;1.00;;;;;;5026343;28;20493;-80
2022/08/24 02:58:20;;;;;;;39.07;23.37;;;18.90;1.00;;;;;;5028720;28;20465;-81
2022/08/24 03:00:49;;;;;;;32.90;22.17;;;18.80;1.00;;;;;;5020885;28;20469;-80
2022/08/24 03:03:17;;;;;;;40.50;22.77;;;18.80;1.00;;;;;;5024592;28;20437;-80
2022/08/24 03:05:44;;;;;;;35.63;23.10;;;18.70;1.00;;;;;;5016714;28;20472;-80
2022/08/24 03:08:11;;;;;;;37.50;23.63;;;18.70;1.00;;;;;;5025849;28;21050;-79
2022/08/24 03:10:38;;;;;;;34.50;22.67;;;18.70;1.00;;;;;;5030695;28;20469;-80
2022/08/24 03:13:06;;;;;;;36.57;23.10;;;18.70;1.00;;;;;;5025857;28;20564;-81
2022/08/24 03:15:33;;;;;;;37.37;23.10;;;18.70;1.00;;;;;;5020883;28;20468;-80
2022/08/24 03:18:00;;;;;;;33.70;22.17;;;18.60;1.00;;;;;;5020633;28;20457;-80
2022/08/24 03:20:32;;;;;;;32.83;22.17;;;18.60;1.00;;;;;;5032385;28;20493;-79
2022/08/24 03:22:59;;;;;;;40.60;29.90;;;18.60;1.00;;;;;;5026006;28;20544;-79
2022/08/24 03:25:26;;;;;;;37.07;23.67;;;18.60;1.00;;;;;;5019949;28;20520;-80
2022/08/24 03:27:55;;;;;;;35.00;24.20;;;18.50;1.00;;;;;;5025939;28;20858;-83
2022/08/24 03:30:23;;;;;;;33.90;22.40;;;18.50;1.00;;;;;;5021591;28;20457;-83
2022/08/24 03:32:50;;;;;;;39.37;22.70;;;18.50;1.00;;;;;;5021158;28;20480;-83
2022/08/24 03:35:20;;;;;;;36.13;23.33;;;18.50;1.00;;;;;;5024237;28;20484;-81
2022/08/24 03:37:50;;;;;;;33.53;22.80;;;18.50;1.00;;;;;;5026038;28;20460;-83
2022/08/24 03:40:19;;;;;;;37.97;23.57;;;18.50;1.00;;;;;;5032349;28;20543;-82
2022/08/24 03:42:45;;;;;;;38.37;23.63;;;18.40;1.00;;;;;;5029590;28;20477;-82
2022/08/24 03:45:12;;;;;;;36.50;23.17;;;18.40;1.00;;;;;;5027859;28;20457;-82
2022/08/24 03:47:39;;;;;;;38.10;23.30;;;18.40;1.00;;;;;;5029446;28;20457;-81
2022/08/24 03:50:07;;;;;;;38.80;23.20;;;18.40;1.00;;;;;;5025220;28;21056;-83
2022/08/24 03:52:35;;;;;;;36.33;23.83;;;18.30;1.00;;;;;;5024890;28;20459;-82
2022/08/24 03:55:04;;;;;;;34.53;23.90;;;18.30;1.00;;;;;;5023357;28;20469;-81
2022/08/24 03:57:34;;;;;;;37.30;25.13;;;18.30;1.00;;;;;;5023822;28;20556;-81
2022/08/24 04:00:01;;;;;;;35.10;24.60;;;18.20;1.00;;;;;;5031756;28;20453;-81
2022/08/24 04:02:28;;;;;;;38.20;23.50;;;18.30;1.00;;;;;;5022889;28;20473;-82
2022/08/24 04:04:55;;;;;;;38.40;22.90;;;18.20;1.00;;;;;;5023932;28;20464;-82
2022/08/24 04:07:23;;;;;;;38.00;26.20;;;18.20;1.00;;;;;;5028275;28;20424;-81
2022/08/24 04:09:50;;;;;;;38.80;23.80;;;18.20;1.00;;;;;;5029975;28;20456;-82
2022/08/24 04:12:18;;;;;;;34.30;23.47;;;18.20;1.00;;;;;;5028450;28;20487;-83
2022/08/24 04:14:45;;;;;;;36.30;23.57;;;18.20;1.00;;;;;;5025677;28;20635;-82
2022/08/24 04:17:12;;;;;;;32.80;24.00;;;18.20;1.00;;;;;;5030738;28;21176;-82
2022/08/24 04:19:56;;;;;;;34.50;23.90;;;18.20;1.00;;;;;;5029066;28;20944;-82
2022/08/24 04:22:24;;;;;;;35.13;23.93;;;18.20;1.00;;;;;;5029455;28;20461;-82
2022/08/24 04:24:52;;;;;;;37.90;23.17;;;18.20;1.00;;;;;;5029736;28;20576;-81
2022/08/24 04:27:20;;;;;;;36.03;24.43;;;18.20;1.00;;;;;;5031338;28;20464;-82
2022/08/24 04:29:47;;;;;;;35.53;21.30;;;18.20;1.00;;;;;;5028723;28;20903;-81
2022/08/24 04:32:16;;;;;;;39.77;24.30;;;18.20;1.00;;;;;;5028585;28;21048;-81
2022/08/24 04:34:46;;;;;;;39.50;24.03;;;18.20;1.00;;;;;;5023750;28;24874;-81
2022/08/24 04:37:14;;;;;;;38.93;24.03;;;18.20;1.00;;;;;;5035043;28;20822;-83
2022/08/24 04:39:44;;;;;;;38.40;25.10;;;18.10;1.00;;;;;;5030124;28;20528;-80
2022/08/24 04:42:14;;;;;;;38.63;25.00;;;18.20;1.00;;;;;;5035447;28;20452;-79
2022/08/24 04:44:42;;;;;;;32.27;22.10;;;18.20;1.00;;;;;;5030291;28;20552;-79
2022/08/24 04:47:09;;;;;;;33.50;23.70;;;18.20;1.00;;;;;;5027600;28;20464;-79
2022/08/24 04:49:36;;;;;;;36.00;24.80;;;18.30;1.00;;;;;;5023602;28;20476;-80
2022/08/24 04:52:03;;;;;;;38.87;25.87;;;18.30;1.00;;;;;;5031848;28;20477;-78
2022/08/24 04:54:33;;;;;;;38.63;27.27;;;18.30;1.00;;;;;;5026794;28;20480;-79
2022/08/24 04:57:00;;;;;;;38.73;22.87;;;18.40;1.00;;;;;;5027846;28;20640;-79
2022/08/24 04:59:27;;;;;;;33.83;23.60;;;18.40;1.00;;;;;;5027168;28;20462;-80
2022/08/24 05:01:56;;;;;;;39.00;24.00;;;18.40;1.00;;;;;;5028303;28;20580;-79
2022/08/24 05:04:23;;;;;;;35.30;22.97;;;18.50;1.00;;;;;;5027701;28;20911;-80
2022/08/24 05:06:50;;;;;;;40.43;24.63;;;18.50;1.00;;;;;;5025558;28;20451;-79
2022/08/24 05:09:17;;;;;;;33.30;22.93;;;18.50;1.00;;;;;;5026517;28;20456;-80
2022/08/24 05:11:44;;;;;;;36.63;25.13;;;18.60;1.00;;;;;;5029631;28;20477;-80
2022/08/24 05:14:12;;;;;;;36.30;24.73;;;18.60;1.00;;;;;;5026808;28;20486;-81
2022/08/24 05:16:39;;;;;;;35.30;25.23;;;18.70;1.00;;;;;;5030459;28;20461;-81
2022/08/24 05:19:08;;;;;;;28.47;22.90;;;18.80;1.00;;;;;;5027289;28;22147;-79
2022/08/24 05:21:35;;;;;;;35.90;24.80;;;18.90;1.00;;;;;;5029678;28;20573;-78
2022/08/24 05:24:02;;;;;;;35.80;24.20;;;19.00;1.00;;;;;;5028560;28;20848;-79
2022/08/24 05:26:30;;;;;;;28.83;21.73;;;19.10;1.00;;;;;;5020197;28;20988;-78
2022/08/24 05:28:59;;;;;;;32.27;24.93;;;19.20;1.00;;;;;;5030935;28;20430;-78
2022/08/24 05:31:29;;;;;;;33.83;24.97;;;19.20;1.00;;;;;;5036086;28;20418;-73
2022/08/24 05:33:58;;;;;;;30.40;25.30;;;19.30;1.00;;;;;;5020652;28;20475;-72
2022/08/24 05:36:29;;;;;;;28.53;22.13;;;19.40;1.00;;;;;;5023372;28;21184;-75
2022/08/24 05:38:59;;;;;;;24.97;22.37;;;19.60;1.00;;;;;;5026402;28;20480;-75
2022/08/24 05:41:26;;;;;;;23.73;20.50;;;19.70;1.00;;;;;;5020799;28;24930;-74
2022/08/24 05:43:53;;;;;;;20.30;18.03;;;19.90;1.00;;;;;;5022196;28;20462;-76
2022/08/24 05:46:21;;;;;;;21.73;18.10;;;20.20;1.00;;;;;;5025495;28;20544;-75
2022/08/24 05:48:48;;;;;;;18.37;16.53;;;20.30;1.00;;;;;;5022257;28;20460;-76
2022/08/24 05:51:15;;;;;;;20.33;18.20;;;20.50;1.00;;;;;;5019679;28;20469;-76
2022/08/24 05:53:43;;;;;;;22.13;18.93;;;20.70;1.00;;;;;;5027145;28;20483;-76
2022/08/24 05:56:14;;;;;;;21.07;18.63;;;20.80;1.00;;;;;;5023635;28;20916;-76
2022/08/24 05:58:41;;;;;;;19.77;17.63;;;21.00;1.00;;;;;;5022558;28;20648;-76
2022/08/24 06:01:09;;;;;;;17.73;15.00;;;21.10;1.00;;;;;;5015292;28;20440;-76
2022/08/24 06:03:37;;;;;;;17.80;16.10;;;21.30;1.00;;;;;;5003856;28;20489;-82
2022/08/24 06:06:16;;;;;;;16.90;15.10;;;21.30;1.00;;;;;;5016733;28;20553;-83
2022/08/24 06:09:25;;;;;;;17.30;14.97;;;21.40;1.00;;;;;;5011987;28;20491;-81
2022/08/24 06:12:05;;;;;;;17.00;15.30;;;21.40;1.00;;;;;;5032116;28;20452;-82
2022/08/24 06:24:08;;;;;;;16.53;14.63;;;21.50;1.00;;;;;;4866017;28;20951;-83
2022/08/24 06:29:24;;;;;;;16.80;15.10;;;21.70;1.00;;;;;;5005058;28;20448;-82
2022/08/24 06:31:56;;;;;;;17.90;16.20;;;21.80;1.00;;;;;;5038656;28;20493;-83
2022/08/24 06:34:24;;;;;;;17.50;15.80;;;21.80;1.00;;;;;;5009306;28;20539;-80
2022/08/24 06:44:03;;;;;;;19.60;16.57;;;22.00;1.00;;;;;;5016389;28;20460;-81
2022/08/24 06:46:36;;;;;;;18.07;16.17;;;22.00;1.00;;;;;;5030774;28;20463;-84
2022/08/24 06:49:03;;;;;;;17.73;15.73;;;22.10;1.00;;;;;;5032384;28;20484;-82
2022/08/24 06:51:31;;;;;;;18.77;15.90;;;22.20;1.00;;;;;;5027874;28;20425;-83
2022/08/24 06:53:58;;;;;;;18.03;15.97;;;22.20;1.00;;;;;;5035577;28;20495;-83
2022/08/24 06:56:25;;;;;;;16.37;14.77;;;22.30;1.00;;;;;;5038617;28;20461;-83
2022/08/24 06:58:52;;;;;;;16.17;14.57;;;22.40;1.00;;;;;;5035590;28;20556;-82
2022/08/24 07:01:23;;;;;;;19.23;17.20;;;22.50;1.00;;;;;;5034113;28;20460;-82
2022/08/24 07:03:54;;;;;;;17.63;15.73;;;22.60;1.00;;;;;;5027162;28;20556;-82
2022/08/24 07:06:22;;;;;;;19.07;17.03;;;22.70;1.00;;;;;;5029207;28;20862;-83
2022/08/24 07:08:50;;;;;;;20.03;16.10;;;22.80;1.00;;;;;;5033061;28;20489;-82
2022/08/24 07:11:20;;;;;;;18.40;16.50;;;22.70;1.00;;;;;;5029985;28;20959;-82
2022/08/24 07:13:48;;;;;;;14.87;13.37;;;22.80;1.00;;;;;;5033708;28;20548;-82
2022/08/24 07:16:16;;;;;;;18.70;16.70;;;22.90;1.00;;;;;;5031148;28;20478;-82
2022/08/24 07:18:44;;;;;;;15.67;13.80;;;22.90;1.00;;;;;;5028078;28;20462;-81
2022/08/24 07:21:11;;;;;;;18.60;15.20;;;23.00;1.00;;;;;;5032220;28;20456;-83
2022/08/24 07:23:39;;;;;;;15.83;14.30;;;23.00;1.00;;;;;;5033258;28;20898;-82
2022/08/24 07:26:10;;;;;;;15.27;13.67;;;23.10;1.00;;;;;;5020112;28;20440;-82
2022/08/24 07:28:39;;;;;;;17.30;15.13;;;23.20;1.00;;;;;;5034204;28;20865;-82
2022/08/24 07:31:08;;;;;;;15.47;13.87;;;23.40;1.00;;;;;;5033227;28;21071;-82
2022/08/24 07:33:36;;;;;;;14.70;13.20;;;23.40;1.00;;;;;;5036362;28;20458;-80
2022/08/24 07:36:05;;;;;;;15.37;13.83;;;23.50;1.00;;;;;;5033662;28;20473;-81
2022/08/24 07:38:34;;;;;;;16.47;14.73;;;23.70;1.00;;;;;;5031384;28;20580;-80
2022/08/24 07:41:02;;;;;;;14.10;12.70;;;23.80;1.00;;;;;;5037000;28;20444;-81
2022/08/24 07:43:30;;;;;;;16.97;15.07;;;23.90;1.00;;;;;;5025748;28;20465;-82
2022/08/24 07:45:56;;;;;;;14.20;13.00;;;24.00;1.00;;;;;;5045818;28;20481;-83
2022/08/24 07:48:23;;;;;;;13.80;12.30;;;24.10;1.00;;;;;;5037411;28;20475;-81
2022/08/24 07:50:51;;;;;;;13.63;12.23;;;24.20;1.00;;;;;;5033923;28;20503;-79
2022/08/24 07:53:20;;;;;;;18.87;13.40;;;24.30;1.00;;;;;;5029544;28;20479;-80
2022/08/24 07:55:53;;;;;;;13.10;11.67;;;24.30;1.00;;;;;;5035277;28;20465;-81
2022/08/24 07:58:20;;;;;;;13.73;12.40;;;24.20;1.00;;;;;;5031367;28;20980;-82
2022/08/24 08:00:49;;;;;;;14.60;13.10;;;24.20;1.00;;;;;;5010686;28;20441;-81
2022/08/24 08:03:16;;;;;;;15.17;13.60;;;24.10;1.00;;;;;;5022447;28;20491;-81
2022/08/24 08:05:44;;;;;;;17.40;14.00;;;23.90;1.00;;;;;;5032381;28;20473;-80
2022/08/24 08:08:12;;;;;;;18.27;16.23;;;23.90;1.00;;;;;;5029374;28;20467;-81
2022/08/24 08:10:40;;;;;;;23.00;17.30;;;23.80;1.00;;;;;;5030571;28;20567;-82
2022/08/24 08:13:08;;;;;;;17.17;15.47;;;23.80;1.00;;;;;;5018706;28;20632;-79
2022/08/24 08:15:35;;;;;;;17.27;14.93;;;23.80;1.00;;;;;;5028400;28;20482;-80
2022/08/24 08:18:02;;;;;;;16.10;13.83;;;23.80;1.00;;;;;;5028163;28;20476;-83
2022/08/24 08:20:29;;;;;;;16.63;14.97;;;24.10;1.00;;;;;;5031205;28;20492;-82
2022/08/24 08:25:44;;;;;;;13.20;11.63;;;24.50;1.00;;;;;;5031591;28;20453;-80
2022/08/24 08:28:14;;;;;;;14.77;13.17;;;24.60;1.00;;;;;;5033861;28;20502;-80
2022/08/24 08:30:45;;;;;;;13.40;12.00;;;24.70;1.00;;;;;;5016701;28;20477;-81
2022/08/24 08:33:20;;;;;;;15.67;14.07;;;24.70;1.00;;;;;;5022332;28;20527;-81
2022/08/24 08:35:48;;;;;;;12.87;11.47;;;24.70;1.00;;;;;;5029914;28;20484;-80
2022/08/24 08:38:17;;;;;;;12.40;11.20;;;24.70;1.00;;;;;;5027975;28;20469;-82
2022/08/24 08:40:59;;;;;;;14.23;10.67;;;24.70;1.00;;;;;;5027636;28;20472;-78
2022/08/24 08:43:40;;;;;;;14.03;12.63;;;24.70;1.00;;;;;;5029789;28;20655;-78
2022/08/24 08:46:28;;;;;;;16.13;12.63;;;24.90;1.00;;;;;;5027894;28;20449;-81
2022/08/24 08:49:26;;;;;;;14.00;12.33;;;24.90;1.00;;;;;;5026139;28;20480;-80
2022/08/24 08:52:33;;;;;;;12.83;11.40;;;24.90;1.00;;;;;;5026389;28;20455;-80
2022/08/24 08:55:08;;;;;;;12.97;11.67;;;25.00;1.00;;;;;;5033641;28;20481;-80
2022/08/24 08:57:56;;;;;;;15.30;12.47;;;25.30;1.00;;;;;;5031826;28;21101;-79
2022/08/24 09:00:27;;;;;;;13.70;12.40;;;25.40;1.00;;;;;;5030225;28;20477;-78
2022/08/24 09:03:29;;;;;;;13.60;12.23;;;25.70;1.00;;;;;;5028869;28;20474;-78
2022/08/24 09:06:21;;;;;;;17.63;15.07;;;25.80;1.00;;;;;;5034964;28;20428;-78
2022/08/24 09:09:21;;;;;;;12.40;11.30;;;25.70;1.00;;;;;;5029071;28;20418;-78
2022/08/24 09:12:08;;;;;;;13.60;12.20;;;25.70;1.00;;;;;;5019234;28;20469;-79
2022/08/24 09:15:09;;;;;;;16.27;12.70;;;25.80;1.00;;;;;;5024856;28;20903;-77
2022/08/24 09:17:58;;;;;;;17.73;14.57;;;25.60;1.00;;;;;;5006598;28;20465;-77
2022/08/24 09:20:49;;;;;;;20.50;15.00;;;25.40;1.00;;;;;;5030898;28;20471;-80
2022/08/24 09:23:26;;;;;;;15.60;13.90;;;25.20;1.00;;;;;;5028325;28;20496;-80
2022/08/24 09:26:04;;;;;;;15.23;13.60;;;25.10;1.00;;;;;;5034407;28;20705;-79
2022/08/24 09:28:41;;;;;;;15.70;13.90;;;25.00;1.00;;;;;;5030161;28;20468;-78
2022/08/24 09:31:34;;;;;;;15.43;13.57;;;24.90;1.00;;;;;;5026854;28;20510;-80
2022/08/24 09:34:15;;;;;;;15.67;13.93;;;25.10;1.00;;;;;;5023471;28;20468;-79
2022/08/24 09:36:55;;;;;;;15.57;13.97;;;25.10;1.00;;;;;;5025198;28;20528;-79
2022/08/24 09:39:55;;;;;;;16.37;14.80;;;25.10;1.00;;;;;;5023553;28;20583;-78
2022/08/24 09:43:19;;;;;;;17.13;13.20;;;25.10;1.00;;;;;;5043210;28;20468;-85
2022/08/24 09:46:15;;;;;;;20.30;17.77;;;25.10;1.00;;;;;;4975856;28;20430;-90
2022/08/24 09:49:18;;;;;;;19.17;16.97;;;25.20;1.00;;;;;;5031889;28;20480;-86
2022/08/24 09:52:17;;;;;;;17.03;15.33;;;25.50;1.00;;;;;;5012338;28;20464;-83
2022/08/24 09:55:18;;;;;;;17.03;14.70;;;25.80;1.00;;;;;;5023957;28;20515;-80
2022/08/24 09:58:01;;;;;;;16.40;14.77;;;25.80;1.00;;;;;;5036449;28;20473;-82
2022/08/24 10:00:41;;;;;;;25.37;23.00;;;25.60;1.00;;;;;;5034459;28;20535;-85
2022/08/24 10:03:48;;;;;;;20.33;14.87;;;25.80;1.00;;;;;;5034583;28;20561;-80
2022/08/24 10:06:37;;;;;;;16.87;15.17;;;26.00;1.00;;;;;;5024458;28;20480;-81
2022/08/24 10:09:40;;;;;;;16.50;14.30;;;26.30;1.00;;;;;;5036003;28;20544;-84
2022/08/24 10:12:21;;;;;;;16.27;14.27;;;26.50;1.00;;;;;;5034919;28;20994;-82
2022/08/24 10:15:03;;;;;;;17.40;15.70;;;26.50;1.00;;;;;;5026407;28;20457;-81
2022/08/24 10:17:47;;;;;;;17.30;14.13;;;26.40;1.00;;;;;;5023054;28;20460;-82
2022/08/24 10:20:23;;;;;;;15.83;14.30;;;26.20;1.00;;;;;;5038226;28;20448;-79
2022/08/24 10:23:09;;;;;;;15.00;13.03;;;26.60;1.00;;;;;;5016522;28;20544;-80
2022/08/24 10:25:42;;;;;;;15.67;12.70;;;27.90;1.00;;;;;;5019957;28;21433;-80
2022/08/24 10:28:36;;;;;;;14.53;12.30;;;29.60;1.00;;;;;;5038645;28;20831;-80
2022/08/24 10:31:05;;;;;;;12.33;11.00;;;32.00;1.00;;;;;;5034679;28;20512;-80
2022/08/24 10:33:38;;;;;;;18.67;12.80;;;33.60;1.00;;;;;;5027458;28;20446;-82
2022/08/24 10:36:34;;;;;;;12.03;10.83;;;34.40;1.00;;;;;;5030353;28;22244;-81
2022/08/24 10:39:42;;;;;;;13.07;11.70;;;34.90;1.00;;;;;;5030362;28;20630;-80
2022/08/24 10:45:56;;;;;;;13.77;12.30;;;34.00;1.00;;;;;;5030347;28;20457;-79
2022/08/24 10:49:03;;;;;;;14.57;12.80;;;33.10;1.00;;;;;;5032133;28;20466;-81
2022/08/24 10:51:43;;;;;;;15.70;13.07;;;34.40;1.00;;;;;;5003155;28;20474;-79
2022/08/24 10:54:14;;;;;;;16.10;12.20;;;36.00;1.00;;;;;;5028203;28;20474;-81
2022/08/24 10:56:53;;;;;;;15.90;11.50;;;36.50;1.00;;;;;;5030023;28;20584;-80
2022/08/24 10:59:24;;;;;;;15.47;12.23;;;37.40;1.00;;;;;;5026681;28;20555;-81
2022/08/24 11:02:05;;;;;;;12.33;11.03;;;36.60;1.00;;;;;;5021691;28;20786;-79
2022/08/24 11:04:40;;;;;;;13.67;11.57;;;34.90;1.00;;;;;;5026623;28;20484;-79
2022/08/24 11:07:15;;;;;;;13.20;11.30;;;34.10;1.00;;;;;;5024086;28;20825;-81
2022/08/24 11:09:52;;;;;;;13.07;11.70;;;35.10;1.00;;;;;;5020938;28;20655;-80
2022/08/24 11:12:26;;;;;;;15.00;13.30;;;35.90;1.00;;;;;;5027689;28;20467;-81
2022/08/24 11:14:56;;;;;;;15.70;12.03;;;36.00;1.00;;;;;;5018962;28;20930;-80
2022/08/24 11:17:25;;;;;;;16.03;14.03;;;35.10;1.00;;;;;;5033021;28;20461;-82
2022/08/24 11:19:53;;;;;;;14.90;13.00;;;33.60;1.00;;;;;;5025001;28;20545;-79
2022/08/24 11:22:39;;;;;;;15.77;14.13;;;32.30;1.00;;;;;;5026509;28;20574;-79
2022/08/24 11:25:15;;;;;;;17.67;14.47;;;31.30;1.00;;;;;;5026626;28;20497;-81
2022/08/24 11:27:46;;;;;;;18.30;13.83;;;30.80;1.00;;;;;;5022130;28;20428;-81
2022/08/24 11:30:22;;;;;;;13.03;11.37;;;30.50;1.00;;;;;;5028114;28;20421;-81
2022/08/24 11:32:53;;;;;;;13.70;11.30;;;31.40;1.00;;;;;;5025191;28;20435;-80
2022/08/24 11:35:24;;;;;;;13.17;11.00;;;31.50;1.00;;;;;;5024820;28;20564;-80
2022/08/24 11:37:55;;;;;;;14.00;11.43;;;31.70;1.00;;;;;;5027424;28;20547;-79
2022/08/24 11:40:28;;;;;;;11.80;10.20;;;31.70;1.00;;;;;;5027718;28;20461;-79
2022/08/24 11:43:10;;;;;;;11.33;10.13;;;31.60;1.00;;;;;;5026840;28;20453;-83
2022/08/24 11:45:43;;;;;;;15.33;10.93;;;32.90;1.00;;;;;;5030590;28;20432;-80
2022/08/24 11:48:24;;;;;;;12.10;10.80;;;35.00;1.00;;;;;;5027118;28;20457;-80
2022/08/24 11:50:59;;;;;;;15.27;10.70;;;36.70;1.00;;;;;;5031654;28;20551;-80
2022/08/24 11:53:35;;;;;;;12.80;9.53;;;38.20;1.00;;;;;;5029140;28;20464;-79
2022/08/24 11:56:12;;;;;;;12.60;9.50;;;39.40;1.00;;;;;;5031024;28;20526;-80
2022/08/24 11:58:49;;;;;;;11.80;9.73;;;39.00;1.00;;;;;;5026515;28;20449;-82
2022/08/24 12:01:23;;;;;;;11.50;10.30;;;38.00;1.00;;;;;;5029600;28;20544;-79
2022/08/24 12:04:06;;;;;;;15.23;11.40;;;37.00;1.00;;;;;;5026918;28;20543;-80
2022/08/24 12:06:44;;;;;;;13.67;9.23;;;36.80;1.00;;;;;;5024764;28;20465;-81
2022/08/24 12:09:24;;;;;;;13.00;9.83;;;36.10;1.00;;;;;;5030642;28;20417;-80
2022/08/24 12:12:02;;;;;;;12.43;9.40;;;37.00;1.00;;;;;;5029345;28;20494;-80
2022/08/24 12:14:37;;;;;;;12.37;9.10;;;38.70;1.00;;;;;;5021955;28;20583;-79
2022/08/24 12:17:11;;;;;;;12.00;7.53;;;39.60;1.00;;;;;;5015025;28;20468;-80
2022/08/24 12:23:15;;;;;;;11.37;8.50;;;40.90;1.00;;;;;;5011211;28;20417;-81
2022/08/24 12:28:56;;;;;;;12.00;7.50;;;41.90;1.00;;;;;;5024179;28;20467;-80
2022/08/24 12:31:29;;;;;;;12.90;8.73;;;42.40;1.00;;;;;;5020196;28;20459;-81
2022/08/24 12:34:13;;;;;;;9.80;7.30;;;42.00;1.00;;;;;;5038244;28;20461;-79
2022/08/24 12:36:53;;;;;;;11.00;8.37;;;42.10;1.00;;;;;;5023968;28;20544;-80
2022/08/24 12:39:37;;;;;;;12.20;9.60;;;42.40;1.00;;;;;;5021903;28;20474;-79
2022/08/24 12:42:17;;;;;;;12.10;9.43;;;42.90;1.00;;;;;;5028969;28;21999;-79
2022/08/24 12:44:52;;;;;;;13.40;9.33;;;41.50;1.00;;;;;;5022450;28;20556;-83
2022/08/24 12:47:33;;;;;;;21.30;9.43;;;39.50;1.00;;;;;;5026146;28;20531;-80
2022/08/24 12:50:10;;;;;;;10.73;7.90;;;37.60;1.00;;;;;;5023365;28;20465;-79
2022/08/24 12:53:04;;;;;;;12.03;9.30;;;35.90;1.00;;;;;;5022600;28;20865;-80
2022/08/24 12:56:19;;;;;;;10.50;8.37;;;34.40;1.00;;;;;;4982007;28;20499;-79
2022/08/24 12:58:57;;;;;;;14.07;8.33;;;33.10;1.00;;;;;;4989408;28;20466;-81
2022/08/24 13:01:32;;;;;;;10.23;8.20;;;33.80;1.00;;;;;;5027526;28;20476;-80
2022/08/24 13:04:16;;;;;;;12.00;7.40;;;36.10;1.00;;;;;;5027253;28;20859;-80
2022/08/24 13:06:49;;;;;;;10.13;7.23;;;38.00;1.00;;;;;;5026081;28;20833;-81
2022/08/24 13:09:29;;;;;;;11.07;6.97;;;39.50;1.00;;;;;;5027771;28;21020;-80
2022/08/24 13:11:58;;;;;;;9.93;6.80;;;40.50;1.00;;;;;;5029777;28;20521;-81
2022/08/24 13:14:29;;;;;;;10.73;7.00;;;41.10;1.00;;;;;;5029597;28;20447;-81
2022/08/24 13:17:12;;;;;;;9.67;6.13;;;41.50;1.00;;;;;;5028953;28;20457;-81
2022/08/24 13:19:46;;;;;;;15.00;7.67;;;42.30;1.00;;;;;;5027359;28;20491;-80
2022/08/24 13:22:48;;;;;;;9.23;6.63;;;42.80;1.00;;;;;;5022767;28;20486;-82
2022/08/24 13:25:52;;;;;;;9.67;7.67;;;42.90;1.00;;;;;;4986293;28;20433;-81
2022/08/24 13:28:39;;;;;;;10.73;7.00;;;43.20;1.00;;;;;;5033370;28;20523;-83
2022/08/24 13:31:23;;;;;;;11.77;7.83;;;44.00;1.00;;;;;;5030270;28;20495;-83
2022/08/24 13:33:54;;;;;;;9.33;6.77;;;44.80;1.00;;;;;;5032877;28;20469;-81
2022/08/24 13:36:49;;;;;;;9.43;6.50;;;45.50;1.00;;;;;;5031440;28;20457;-83
2022/08/24 13:39:49;;;;;;;9.80;6.37;;;45.80;1.00;;;;;;5032232;28;20545;-79
2022/08/24 13:42:30;;;;;;;9.30;6.47;;;44.10;1.00;;;;;;5034489;28;20900;-78
2022/08/24 13:45:25;;;;;;;9.80;6.37;;;40.60;1.00;;;;;;5037435;28;20582;-80
2022/08/24 13:48:02;;;;;;;10.80;6.70;;;38.20;1.00;;;;;;5006693;28;20448;-80